createdAt,value
2022-08-21T00:00:33.143Z,100548.19
2022-08-21T00:03:35.322Z,100543.78
2022-08-21T00:06:38.436Z,100544.03
2022-08-21T00:09:40.998Z,100538.81
2022-08-21T00:12:44.157Z,100529.41
2022-08-21T00:15:47.334Z,100539.34
2022-08-21T00:18:50.470Z,100526.41
2022-08-21T00:21:53.910Z,100526.91
2022-08-21T00:24:56.040Z,100524.47
2022-08-21T00:27:58.453Z,100531.97
2022-08-21T00:31:01.341Z,100535.22
2022-08-21T00:34:04.145Z,100531.38
2022-08-21T00:37:06.267Z,100532.22
2022-08-21T00:40:11.803Z,100537.16
2022-08-21T00:43:17.170Z,100536.06
2022-08-21T00:46:20.009Z,100518.63
2022-08-21T00:49:22.050Z,100523.34
2022-08-21T00:52:32.631Z,100525.00
2022-08-21T00:55:37.881Z,100525.84
2022-08-21T00:58:44.009Z,100529.16
2022-08-21T01:01:46.724Z,100517.03
2022-08-21T01:04:49.617Z,100519.50
2022-08-21T01:07:51.979Z,100509.03
2022-08-21T01:10:55.029Z,100517.06
2022-08-21T01:14:01.132Z,100508.00
2022-08-21T01:17:04.581Z,100501.34
2022-08-21T01:20:10.277Z,100507.16
2022-08-21T01:23:13.118Z,100508.81
2022-08-21T01:26:18.728Z,100511.84
2022-08-21T01:29:43.017Z,100512.94
2022-08-21T01:32:46.100Z,100488.34
2022-08-21T01:35:48.230Z,100491.97
2022-08-21T01:38:50.607Z,100515.09
2022-08-21T01:41:52.843Z,100508.47
2022-08-21T01:44:54.849Z,100512.84
2022-08-21T01:47:58.444Z,100502.66
2022-08-21T01:51:00.779Z,100497.66
2022-08-21T01:54:03.907Z,100509.75
2022-08-21T01:57:07.780Z,100503.94
2022-08-21T02:00:13.406Z,100493.19
2022-08-21T02:03:15.568Z,100492.44
2022-08-21T02:06:38.709Z,100499.31
2022-08-21T02:09:43.280Z,100507.88
2022-08-21T02:12:45.690Z,100482.53
2022-08-21T02:15:47.742Z,100496.34
2022-08-21T02:18:49.833Z,100487.00
2022-08-21T02:21:54.117Z,100480.34
2022-08-21T02:24:56.292Z,100483.09
2022-08-21T02:27:59.851Z,100485.03
2022-08-21T02:31:02.840Z,100485.03
2022-08-21T02:34:04.972Z,100499.59
2022-08-21T02:37:07.113Z,100487.19
2022-08-21T02:40:12.502Z,100485.59
2022-08-21T02:43:16.477Z,100491.94
2022-08-21T02:46:22.242Z,100487.78
2022-08-21T02:49:24.467Z,100485.25
2022-08-21T02:52:26.618Z,100466.81
2022-08-21T02:55:31.817Z,100484.75
2022-08-21T02:58:39.701Z,100477.56
2022-08-21T03:01:42.052Z,100478.44
2022-08-21T03:04:46.663Z,100457.44
2022-08-21T03:07:50.764Z,100464.97
2022-08-21T03:10:54.491Z,100473.47
2022-08-21T03:13:56.659Z,100475.69
2022-08-21T03:16:58.820Z,100478.72
2022-08-21T03:20:01.621Z,100485.59
2022-08-21T03:23:06.167Z,100480.63
2022-08-21T03:26:15.139Z,100489.69
2022-08-21T03:29:18.297Z,100498.50
2022-08-21T03:32:20.927Z,100498.75
2022-08-21T03:35:23.026Z,100518.81
2022-08-21T03:38:26.791Z,100526.22
2022-08-21T03:41:29.171Z,100520.16
2022-08-21T03:44:31.674Z,100522.00
2022-08-21T03:47:34.344Z,100539.97
2022-08-21T03:50:41.366Z,100524.50
2022-08-21T03:53:43.712Z,100527.81
2022-08-21T03:56:45.901Z,100541.06
2022-08-21T03:59:48.364Z,100530.63
2022-08-21T04:02:50.398Z,100532.81
2022-08-21T04:05:53.709Z,100536.38
2022-08-21T04:08:56.127Z,100529.75
2022-08-21T04:12:00.026Z,100531.72
2022-08-21T04:15:03.110Z,100529.78
2022-08-21T04:18:06.686Z,100541.09
2022-08-21T04:21:11.396Z,100537.22
2022-08-21T04:24:13.467Z,100529.44
2022-08-21T04:27:15.615Z,100531.22
2022-08-21T04:30:18.463Z,100533.63
2022-08-21T04:33:22.006Z,100533.69
2022-08-21T04:36:24.424Z,100526.28
2022-08-21T04:39:29.733Z,100531.25
2022-08-21T04:42:32.348Z,100529.66
2022-08-21T04:45:38.254Z,100538.81
2022-08-21T04:48:41.598Z,100538.03
2022-08-21T04:51:43.769Z,100534.69
2022-08-21T04:54:53.075Z,100521.50
2022-08-21T04:57:58.094Z,100532.28
2022-08-21T05:01:02.063Z,100523.84
2022-08-21T05:04:06.979Z,100521.94
2022-08-21T05:07:15.708Z,100524.16
2022-08-21T05:10:21.885Z,100524.47
2022-08-21T05:13:24.030Z,100517.03
2022-08-21T05:16:36.935Z,100517.34
2022-08-21T05:19:40.088Z,100521.50
2022-08-21T05:22:42.627Z,100523.59
2022-08-21T05:25:45.576Z,100517.53
2022-08-21T05:28:48.304Z,100523.94
2022-08-21T05:31:50.406Z,100518.97
2022-08-21T05:34:52.650Z,100522.06
2022-08-21T05:37:55.185Z,100532.84
2022-08-21T05:40:57.381Z,100528.16
2022-08-21T05:43:59.780Z,100524.78
2022-08-21T05:47:07.152Z,100532.03
2022-08-21T05:50:09.775Z,100520.97
2022-08-21T05:53:13.618Z,100527.81
2022-08-21T05:56:16.219Z,100519.88
2022-08-21T05:59:19.333Z,100510.81
2022-08-21T06:02:22.242Z,100515.34
2022-08-21T06:05:37.389Z,100504.81
2022-08-21T06:08:40.272Z,100507.91
2022-08-21T06:11:42.581Z,100503.44
2022-08-21T06:14:44.818Z,100512.91
2022-08-21T06:17:46.914Z,100514.66
2022-08-21T06:20:49.014Z,100526.28
2022-08-21T06:23:51.266Z,100515.28
2022-08-21T06:26:54.255Z,100512.53
2022-08-21T06:29:59.032Z,100525.53
2022-08-21T06:33:01.258Z,100527.75
2022-08-21T06:36:04.241Z,100519.50
2022-08-21T06:39:16.639Z,100516.56
2022-08-21T06:42:29.303Z,100516.84
2022-08-21T06:45:32.566Z,100516.84
2022-08-21T06:48:35.399Z,100510.84
2022-08-21T06:51:37.554Z,100513.38
2022-08-21T06:54:40.601Z,100523.59
2022-08-21T06:57:42.719Z,100518.09
2022-08-21T07:00:56.480Z,100511.97
2022-08-21T07:04:02.573Z,100526.63
2022-08-21T07:07:04.844Z,100526.41
2022-08-21T07:10:07.258Z,100523.09
2022-08-21T07:13:09.590Z,100523.97
2022-08-21T07:16:11.882Z,100527.31
2022-08-21T07:19:14.019Z,100535.56
2022-08-21T07:22:19.329Z,100529.75
2022-08-21T07:25:21.529Z,100518.69
2022-08-21T07:28:23.724Z,100522.88
2022-08-21T07:31:27.318Z,100511.84
2022-08-21T07:34:29.479Z,100512.66
2022-08-21T07:37:31.537Z,100516.00
2022-08-21T07:40:33.700Z,100505.25
2022-08-21T07:43:38.094Z,100500.88
2022-08-21T07:46:48.276Z,100511.97
2022-08-21T07:49:50.406Z,100497.88
2022-08-21T07:52:53.156Z,100501.25
2022-08-21T07:55:58.802Z,100497.94
2022-08-21T07:59:01.196Z,100499.06
2022-08-21T08:02:03.409Z,100477.84
2022-08-21T08:05:10.539Z,100494.13
2022-08-21T08:08:12.710Z,100480.63
2022-08-21T08:11:18.262Z,100479.16
2022-08-21T08:14:21.260Z,100489.19
2022-08-21T08:17:34.051Z,100491.72
2022-08-21T08:20:36.157Z,100471.41
2022-08-21T08:23:39.112Z,100470.06
2022-08-21T08:26:41.186Z,100466.19
2022-08-21T08:29:44.054Z,100460.09
2022-08-21T08:32:48.087Z,100471.19
2022-08-21T08:35:51.735Z,100474.81
2022-08-21T08:38:53.787Z,100471.22
2022-08-21T08:42:32.666Z,100467.66
2022-08-21T08:45:37.701Z,100462.97
2022-08-21T08:49:19.836Z,100464.13
2022-08-21T08:52:28.601Z,100459.72
2022-08-21T08:55:38.423Z,100458.94
2022-08-21T08:58:43.900Z,100457.81
2022-08-21T09:01:46.780Z,100458.69
2022-08-21T09:04:51.301Z,100451.28
2022-08-21T09:08:19.724Z,100437.50
2022-08-21T09:11:34.428Z,100443.88
2022-08-21T09:15:05.342Z,100439.19
2022-08-21T09:18:10.230Z,100435.91
2022-08-21T09:21:34.217Z,100434.53
2022-08-21T09:25:02.371Z,100438.69
2022-08-21T09:28:04.823Z,100434.00
2022-08-21T09:31:09.597Z,100438.16
2022-08-21T09:34:14.301Z,100432.06
2022-08-21T09:37:20.087Z,100427.69
2022-08-21T09:40:33.959Z,100429.91
2022-08-21T09:43:37.234Z,100428.53
2022-08-21T09:46:39.355Z,100427.13
2022-08-21T09:49:45.230Z,100431.28
2022-08-21T09:52:55.904Z,100431.81
2022-08-21T09:56:24.395Z,100423.28
2022-08-21T09:59:36.707Z,100431.00
2022-08-21T10:02:39.599Z,100420.25
2022-08-21T10:06:01.676Z,100417.78
2022-08-21T10:09:20.046Z,100415.28
2022-08-21T10:12:33.207Z,100409.53
2022-08-21T10:15:59.972Z,100410.88
2022-08-21T10:19:02.638Z,100415.56
2022-08-21T10:22:31.119Z,100402.63
2022-08-21T10:25:56.758Z,100404.00
2022-08-21T10:29:10.354Z,100387.47
2022-08-21T10:32:28.249Z,100400.44
2022-08-21T10:35:35.233Z,100384.19
2022-08-21T10:38:55.403Z,100391.34
2022-08-21T10:42:11.268Z,100388.59
2022-08-21T10:45:28.877Z,100391.91
2022-08-21T10:48:45.619Z,100372.63
2022-08-21T10:52:17.007Z,100387.53
2022-08-21T10:55:23.239Z,100373.47
2022-08-21T10:58:32.644Z,100368.78
2022-08-21T11:01:56.405Z,100373.19
2022-08-21T11:05:03.717Z,100359.69
2022-08-21T11:08:16.474Z,100357.19
2022-08-21T11:11:36.601Z,100358.25
2022-08-21T11:14:59.937Z,100354.94
2022-08-21T11:18:42.670Z,100357.16
2022-08-21T11:22:03.322Z,100354.69
2022-08-21T11:25:27.565Z,100356.06
2022-08-21T11:28:55.858Z,100353.03
2022-08-21T11:32:42.157Z,100344.75
2022-08-21T11:35:48.824Z,100341.69
2022-08-21T11:39:07.703Z,100330.97
2022-08-21T11:42:15.463Z,100331.50
2022-08-21T11:45:35.851Z,100329.59
2022-08-21T11:48:55.337Z,100331.78
2022-08-21T11:52:23.186Z,100326.81
2022-08-21T11:55:31.839Z,100290.97
2022-08-21T11:58:44.254Z,100308.63
2022-08-21T12:01:47.114Z,100319.63
2022-08-21T12:05:08.297Z,100313.84
2022-08-21T12:08:11.238Z,100316.59
2022-08-21T12:11:19.632Z,100308.63
2022-08-21T12:14:21.835Z,100305.88
2022-08-21T12:17:35.457Z,100287.13
2022-08-21T12:20:45.134Z,100302.84
2022-08-21T12:24:04.949Z,100307.53
2022-08-21T12:27:22.434Z,100298.69
2022-08-21T12:30:37.451Z,100292.09
2022-08-21T12:33:42.081Z,100290.19
2022-08-21T12:36:49.704Z,100287.16
2022-08-21T12:39:53.867Z,100279.72
2022-08-21T12:43:01.777Z,100271.19
2022-08-21T12:46:05.619Z,100276.69
2022-08-21T12:49:15.689Z,100272.03
2022-08-21T12:52:45.269Z,100266.25
2022-08-21T12:55:47.570Z,100256.03
2022-08-21T12:59:00.163Z,100261.25
2022-08-21T13:02:05.477Z,100247.75
2022-08-21T13:05:13.289Z,100241.97
2022-08-21T13:08:17.751Z,100248.84
2022-08-21T13:11:32.412Z,100236.69
2022-08-21T13:14:47.858Z,100242.19
2022-08-21T13:17:51.774Z,100244.38
2022-08-21T13:21:05.263Z,100244.88
2022-08-21T13:24:41.434Z,100244.63
2022-08-21T13:27:41.628Z,100242.72
2022-08-21T13:30:47.738Z,100229.78
2022-08-21T13:33:51.574Z,100219.31
2022-08-21T13:37:00.689Z,100222.59
2022-08-21T13:40:03.722Z,100216.53
2022-08-21T13:43:14.135Z,100225.06
2022-08-21T13:46:16.557Z,100207.41
2022-08-21T13:49:21.723Z,100211.53
2022-08-21T13:52:26.923Z,100207.34
2022-08-21T13:55:43.824Z,100202.97
2022-08-21T13:58:47.899Z,100203.22
2022-08-21T14:01:52.485Z,100203.78
2022-08-21T14:05:04.613Z,100194.38
2022-08-21T14:08:09.509Z,100189.69
2022-08-21T14:11:14.458Z,100186.97
2022-08-21T14:14:27.434Z,100196.31
2022-08-21T14:17:36.501Z,100201.78
2022-08-21T14:20:40.917Z,100189.66
2022-08-21T14:23:43.711Z,100204.28
2022-08-21T14:26:53.207Z,100197.66
2022-08-21T14:30:01.001Z,100210.88
2022-08-21T14:33:05.136Z,100215.84
2022-08-21T14:36:07.638Z,100212.56
2022-08-21T14:39:10.302Z,100212.00
2022-08-21T14:42:13.895Z,100212.00
2022-08-21T14:45:23.012Z,100206.50
2022-08-21T14:48:29.127Z,100204.28
2022-08-21T14:51:31.761Z,100209.25
2022-08-21T14:54:34.386Z,100212.81
2022-08-21T14:57:36.917Z,100208.41
2022-08-21T15:00:39.145Z,100214.50
2022-08-21T15:03:41.593Z,100214.22
2022-08-21T15:06:43.793Z,100208.16
2022-08-21T15:09:46.047Z,100213.97
2022-08-21T15:12:48.266Z,100201.63
2022-08-21T15:15:53.902Z,100206.28
2022-08-21T15:18:56.091Z,100210.94
2022-08-21T15:21:58.859Z,100210.09
2022-08-21T15:25:02.192Z,100195.50
2022-08-21T15:28:04.856Z,100202.69
2022-08-21T15:31:07.695Z,100206.53
2022-08-21T15:34:09.920Z,100214.53
2022-08-21T15:37:12.184Z,100193.38
2022-08-21T15:40:15.308Z,100200.53
2022-08-21T15:43:30.154Z,100199.44
2022-08-21T15:46:32.767Z,100186.78
2022-08-21T15:49:34.870Z,100198.63
2022-08-21T15:52:37.212Z,100201.69
2022-08-21T15:55:39.998Z,100197.03
2022-08-21T15:58:42.168Z,100200.84
2022-08-21T16:01:45.352Z,100198.41
2022-08-21T16:04:47.565Z,100196.47
2022-08-21T16:07:51.096Z,100203.34
2022-08-21T16:10:55.143Z,100189.84
2022-08-21T16:13:57.586Z,100213.59
2022-08-21T16:16:59.879Z,100209.94
2022-08-21T16:20:07.071Z,100203.38
2022-08-21T16:23:09.396Z,100205.28
2022-08-21T16:26:14.101Z,100213.28
2022-08-21T16:29:22.633Z,100207.50
2022-08-21T16:32:24.799Z,100224.28
2022-08-21T16:35:32.507Z,100219.91
2022-08-21T16:38:38.397Z,100224.03
2022-08-21T16:41:41.159Z,100230.94
2022-08-21T16:44:48.610Z,100230.13
2022-08-21T16:47:51.525Z,100223.25
2022-08-21T16:50:53.695Z,100252.44
2022-08-21T16:53:55.800Z,100256.59
2022-08-21T16:56:58.952Z,100262.94
2022-08-21T17:00:13.935Z,100269.00
2022-08-21T17:03:18.663Z,100270.66
2022-08-21T17:06:22.811Z,100289.13
2022-08-21T17:09:32.725Z,100281.94
2022-08-21T17:12:35.408Z,100289.63
2022-08-21T17:15:39.131Z,100284.38
2022-08-21T17:18:41.342Z,100278.31
2022-08-21T17:21:43.538Z,100295.41
2022-08-21T17:24:45.921Z,100302.03
2022-08-21T17:27:49.762Z,100304.19
2022-08-21T17:30:56.014Z,100314.91
2022-08-21T17:33:58.210Z,100308.84
2022-08-21T17:37:00.588Z,100314.34
2022-08-21T17:40:06.061Z,100316.00
2022-08-21T17:43:13.044Z,100321.22
2022-08-21T17:46:22.767Z,100332.50
2022-08-21T17:49:25.547Z,100333.88
2022-08-21T17:52:28.069Z,100328.34
2022-08-21T17:55:31.015Z,100335.22
2022-08-21T17:58:33.632Z,100333.84
2022-08-21T18:01:43.485Z,100325.84
2022-08-21T18:04:45.527Z,100326.66
2022-08-21T18:07:48.746Z,100320.59
2022-08-21T18:10:51.588Z,100315.34
2022-08-21T18:13:56.178Z,100299.34
2022-08-21T18:17:00.830Z,100322.22
2022-08-21T18:20:06.439Z,100313.66
2022-08-21T18:23:08.886Z,100319.47
2022-08-21T18:26:13.758Z,100310.91
2022-08-21T18:29:19.436Z,100318.34
2022-08-21T18:32:30.851Z,100310.91
2022-08-21T18:35:33.741Z,100309.28
2022-08-21T18:38:36.120Z,100315.31
2022-08-21T18:41:38.427Z,100317.25
2022-08-21T18:44:44.154Z,100320.28
2022-08-21T18:47:52.763Z,100309.53
2022-08-21T18:50:54.937Z,100321.63
2022-08-21T18:53:57.431Z,100306.19
2022-08-21T18:57:00.552Z,100296.78
2022-08-21T19:00:16.835Z,100322.16
2022-08-21T19:03:24.023Z,100316.94
2022-08-21T19:06:26.408Z,100311.69
2022-08-21T19:09:28.802Z,100316.38
2022-08-21T19:12:32.029Z,100319.13
2022-08-21T19:15:38.209Z,100321.03
2022-08-21T19:18:42.110Z,100322.97
2022-08-21T19:21:47.241Z,100317.97
2022-08-21T19:24:52.406Z,100324.09
2022-08-21T19:27:55.236Z,100315.75
2022-08-21T19:31:06.822Z,100307.19
2022-08-21T19:34:15.781Z,100334.22
2022-08-21T19:37:20.552Z,100329.78
2022-08-21T19:40:23.313Z,100315.16
2022-08-21T19:43:26.255Z,100332.56
2022-08-21T19:46:37.434Z,100336.41
2022-08-21T19:49:42.084Z,100346.59
2022-08-21T19:56:18.249Z,100328.69
2022-08-21T19:59:24.900Z,100325.09
2022-08-21T20:02:27.222Z,100316.28
2022-08-21T20:05:39.521Z,100318.50
2022-08-21T20:08:43.031Z,100313.81
2022-08-21T20:11:52.920Z,100314.34
2022-08-21T20:14:55.829Z,100310.78
2022-08-21T20:17:58.942Z,100316.56
2022-08-21T20:21:01.114Z,100318.78
2022-08-21T20:24:04.296Z,100309.66
2022-08-21T20:27:06.830Z,100308.31
2022-08-21T20:30:10.078Z,100314.34
2022-08-21T20:33:12.571Z,100312.41
2022-08-21T20:36:14.742Z,100325.34
2022-08-21T20:39:17.291Z,100319.03
2022-08-21T20:42:19.759Z,100323.69
2022-08-21T20:45:26.695Z,100320.66
2022-08-21T20:48:49.609Z,100326.16
2022-08-21T20:51:53.244Z,100325.63
2022-08-21T20:55:03.175Z,100321.72
2022-08-21T20:58:13.903Z,100325.84
2022-08-21T21:01:18.425Z,100319.25
2022-08-21T21:04:27.554Z,100308.19
2022-08-21T21:07:48.326Z,100322.00
2022-08-21T21:10:59.245Z,100327.50
2022-08-21T21:14:13.533Z,100323.06
2022-08-21T21:17:28.743Z,100329.66
2022-08-21T21:20:39.475Z,100337.09
2022-08-21T21:23:54.816Z,100336.28
2022-08-21T21:27:11.737Z,100329.38
2022-08-21T21:30:29.667Z,100333.53
2022-08-21T21:33:32.556Z,100331.00
2022-08-21T21:40:40.474Z,100339.25
2022-08-21T21:44:12.549Z,100332.13
2022-08-21T21:47:33.574Z,100336.50
2022-08-21T21:51:20.854Z,100329.91
2022-08-21T21:54:29.882Z,100327.41
2022-08-21T21:57:55.101Z,100341.16
2022-08-21T22:01:28.932Z,100316.66
2022-08-21T22:04:51.189Z,100326.56
2022-08-21T22:08:07.883Z,100321.88
2022-08-21T22:11:28.526Z,100322.69
2022-08-21T22:14:37.602Z,100316.91
2022-08-21T22:17:50.840Z,100318.31
2022-08-21T22:21:00.024Z,100326.56
2022-08-21T22:24:18.755Z,100322.97
2022-08-21T22:27:31.026Z,100332.03
2022-08-21T22:30:45.309Z,100335.63
2022-08-21T22:34:01.317Z,100324.09
2022-08-21T22:37:10.180Z,100323.50
2022-08-21T22:40:15.952Z,100326.81
2022-08-21T22:43:27.529Z,100331.75
2022-08-21T22:46:42.594Z,100321.03
2022-08-21T22:49:49.419Z,100319.63
2022-08-21T22:53:02.928Z,100329.81
2022-08-21T22:56:07.774Z,100317.69
2022-08-21T22:59:25.421Z,100319.34
2022-08-21T23:02:48.631Z,100330.63
2022-08-21T23:05:54.465Z,100331.16
2022-08-21T23:08:58.928Z,100324.00
2022-08-21T23:12:21.221Z,100329.22
2022-08-21T23:15:23.946Z,100332.78
2022-08-21T23:18:58.113Z,100341.31
2022-08-21T23:22:15.692Z,100338.00
2022-08-21T23:25:28.546Z,100328.84
2022-08-21T23:28:30.737Z,100342.38
2022-08-21T23:31:41.976Z,100332.16
2022-08-21T23:35:13.299Z,100341.03
2022-08-21T23:38:54.800Z,100352.00
2022-08-21T23:42:26.330Z,100353.13
2022-08-21T23:45:33.140Z,100349.50
2022-08-21T23:49:05.816Z,100371.25
2022-08-21T23:52:33.377Z,100355.88
2022-08-21T23:55:55.279Z,100340.88
2022-08-21T23:59:10.074Z,100356.31
